Swift Current Airport, Saskatchewan

Past 24 Hour Conditions

This table is a summary of hourly weather conditions for the past 24 hours. This summary includes the following parameters: temperature, humidity, dew point, wind speed and direction, air pressure, visibility and/or wind chill and humidex.
Date / Time
(CST)
Conditions Temp (°F) Humidity (%) Dew Point (°F) Wind (mph) Pressure (inches) Vis (mi) Wind Chill
20 April 2014
5:00 Clear 30 92 28 SE 5 29.8 10 25
4:00 Clear 30 95 28 SE 9 29.9 10 21
3:00 Mostly Cloudy 29   95 27 SE 6 29.9 9 23
2:00 Mostly Cloudy 32 95 30 ESE 10 29.9 10 23
1:00 Mostly Cloudy 32 93 31 ESE 11 29.9 10 *
00:00 Cloudy 34 90 31 ESE 13 gust 18 29.9 10 *
19 April 2014
23:00 Mostly Cloudy 34 90 31 ESE 13 29.9 10 *
22:00 Clear 34 89 32 ESE 10 29.9 10 *
21:00 Mainly Clear 36 84 32 E 11 29.9 10 *
20:00 Sunny 39 75 32 ENE 8 29.9 10 *
19:00 Sunny 47   57 32 N 5 29.9 10 *
18:00 Sunny 47   55 32 NNW 8 29.9 10 *
17:00 Sunny 47   57 33 W 7 gust 17 29.9 10 *
16:00 Sunny 47   60 34 W 10 gust 18 29.9 10 *
15:00 Mostly Cloudy 44 69 34 W 14 gust 21 29.9 10 *
14:00 Cloudy 38 80 32 WNW 15 29.9 10 *
13:00 Cloudy 36 87 33 W 18 29.9 10 *
12:00 Cloudy 34 93 32 W 17 30.0 10 *
11:00 Cloudy 33 95 32 WNW 14 gust 20 30.0 10 *
10:00 Light Rain 33 97 32 WNW 17 29.9 4 *
9:00 Mist 32 98 32 WNW 15 gust 23 29.9 3 *
8:00 Mist 32 97 31 NW 18 29.9 3 20
7:00 Cloudy 32 97 31 WNW 16 gust 25 29.9 7 21
6:00 Mist 31 98 31 NW 24 29.9 3 18
5:00 Light Snow 31 98 31 NW 23 gust 31 29.8 2 18
N/A
Not available
 ↑ 
Highest temperature
 ↓ 
Lowest temperature
*
Value not significant.

If you require additional historical weather information, please visit Climate Data Online.